Time;durP1;ratioP1;P1;durP2;ratioP2;P2;SDS_P1;SDS_P2;PMS_P1;PMS_P2;Temp;Humidity;BMP_temperature;BMP_pressure;BME280_temperature;BME280_humidity;BME280_pressure;Samples;Min_cycle;Max_cycle;Signal;HPM_P1;HPM_P2
2022/08/22 00:02:13;;;;;;;4.75;2.90;;;16.80;99.90;;;;;;5032244;28;20202;-77
2022/08/22 00:04:46;;;;;;;3.60;2.90;;;16.80;99.90;;;;;;5031445;28;20205;-77
2022/08/22 00:07:21;;;;;;;5.75;3.67;;;16.80;99.90;;;;;;5032148;28;20530;-79
2022/08/22 00:10:01;;;;;;;5.63;3.13;;;16.80;99.90;;;;;;5031974;28;20197;-80
2022/08/22 00:12:34;;;;;;;4.28;3.50;;;16.80;99.90;;;;;;5031629;28;20203;-78
2022/08/22 00:15:10;;;;;;;4.35;3.53;;;16.80;99.90;;;;;;5031812;28;20281;-76
2022/08/22 00:17:49;;;;;;;7.03;3.55;;;16.80;99.90;;;;;;5031859;28;20198;-77
2022/08/22 00:20:23;;;;;;;5.45;3.65;;;16.80;99.90;;;;;;5031667;28;20213;-77
2022/08/22 00:22:54;;;;;;;7.25;4.10;;;16.80;99.90;;;;;;5031239;28;20232;-78
2022/08/22 00:25:37;;;;;;;7.78;4.13;;;16.80;99.90;;;;;;5031631;28;20203;-78
2022/08/22 00:28:09;;;;;;;6.70;4.28;;;16.80;99.90;;;;;;5031252;28;20214;-78
2022/08/22 00:30:44;;;;;;;6.40;3.97;;;16.80;99.90;;;;;;5032212;28;20190;-78
2022/08/22 00:33:21;;;;;;;6.20;3.90;;;16.80;99.90;;;;;;5032259;28;20198;-77
2022/08/22 00:35:53;;;;;;;4.60;3.38;;;16.80;99.90;;;;;;5032155;28;20205;-79
2022/08/22 00:38:25;;;;;;;6.63;3.30;;;16.80;99.90;;;;;;5031609;28;20649;-78
2022/08/22 00:40:59;;;;;;;5.00;2.75;;;16.80;99.90;;;;;;5031133;28;20822;-78
2022/08/22 00:43:52;;;;;;;5.78;2.80;;;16.90;99.90;;;;;;5031992;28;20282;-80
2022/08/22 00:46:43;;;;;;;4.07;2.85;;;16.90;99.90;;;;;;5026003;28;20202;-79
2022/08/22 00:49:31;;;;;;;5.60;3.03;;;16.90;99.90;;;;;;5031701;28;20212;-79
2022/08/22 00:52:31;;;;;;;4.93;3.38;;;16.90;99.90;;;;;;5014914;28;20518;-80
2022/08/22 00:55:23;;;;;;;4.75;2.88;;;16.90;99.90;;;;;;5030868;28;20198;-80
2022/08/22 00:58:18;;;;;;;3.78;3.33;;;16.90;99.90;;;;;;5031547;28;20512;-81
2022/08/22 01:00:51;;;;;;;2.65;2.45;;;16.90;99.90;;;;;;5027546;28;20234;-81
2022/08/22 01:03:59;;;;;;;8.30;4.18;;;16.90;99.90;;;;;;5039081;28;20206;-80
2022/08/22 01:06:39;;;;;;;6.20;2.72;;;16.90;99.90;;;;;;5031676;28;20194;-81
2022/08/22 01:09:15;;;;;;;4.45;2.83;;;16.90;99.90;;;;;;5031684;28;20502;-80
2022/08/22 01:12:01;;;;;;;5.40;3.03;;;16.90;99.90;;;;;;5031136;28;20568;-80
2022/08/22 01:14:38;;;;;;;8.02;3.35;;;16.80;99.90;;;;;;5031564;28;20202;-80
2022/08/22 01:17:24;;;;;;;5.18;2.80;;;16.80;99.90;;;;;;5031720;28;20194;-81
2022/08/22 01:20:22;;;;;;;4.90;3.03;;;16.80;99.90;;;;;;5031642;28;20223;-81
2022/08/22 01:23:24;;;;;;;4.85;2.60;;;16.80;99.90;;;;;;5026657;28;20207;-81
2022/08/22 01:26:38;;;;;;;5.93;2.75;;;16.80;99.90;;;;;;5022141;28;20206;-80
2022/08/22 01:29:54;;;;;;;6.60;2.50;;;16.90;99.90;;;;;;5020955;28;20787;-80
2022/08/22 01:32:58;;;;;;;5.78;2.80;;;16.80;99.90;;;;;;5031790;28;20214;-80
2022/08/22 01:35:50;;;;;;;3.72;2.40;;;16.90;99.90;;;;;;5033183;28;20498;-78
2022/08/22 01:38:34;;;;;;;3.65;2.22;;;16.80;99.90;;;;;;5015045;28;20238;-77
2022/08/22 01:41:28;;;;;;;2.83;2.00;;;16.80;99.90;;;;;;5034881;28;20229;-80
2022/08/22 01:44:11;;;;;;;3.00;2.13;;;16.80;99.90;;;;;;5033263;28;20198;-81
2022/08/22 01:46:49;;;;;;;4.40;2.45;;;16.80;99.90;;;;;;5036252;28;20206;-80
2022/08/22 01:49:21;;;;;;;7.05;2.53;;;16.80;99.90;;;;;;5035456;28;20199;-81
2022/08/22 01:51:53;;;;;;;5.70;2.40;;;16.80;99.90;;;;;;5033470;28;20273;-79
2022/08/22 01:54:44;;;;;;;5.15;2.53;;;16.80;99.90;;;;;;5049436;28;20532;-81
2022/08/22 01:57:13;;;;;;;7.78;3.38;;;16.80;99.90;;;;;;5037125;28;20203;-80
2022/08/22 01:59:42;;;;;;;6.32;3.33;;;16.80;99.90;;;;;;5034096;28;20246;-81
2022/08/22 02:02:32;;;;;;;5.30;2.53;;;16.80;99.90;;;;;;5034350;28;20771;-81
2022/08/22 02:05:06;;;;;;;5.82;2.63;;;16.80;99.90;;;;;;5040842;28;20209;-81
2022/08/22 02:07:48;;;;;;;3.55;2.20;;;16.80;99.90;;;;;;5054165;28;20186;-81
2022/08/22 02:10:20;;;;;;;4.72;3.00;;;16.80;99.90;;;;;;5054637;28;20190;-80
2022/08/22 02:12:56;;;;;;;5.10;2.55;;;16.80;99.90;;;;;;5053246;28;20255;-81
2022/08/22 02:15:33;;;;;;;6.85;3.15;;;16.80;99.90;;;;;;5034655;28;20195;-81
2022/08/22 02:18:17;;;;;;;3.10;2.60;;;16.80;99.90;;;;;;5046374;28;20619;-80
2022/08/22 02:20:59;;;;;;;5.38;2.78;;;16.80;99.90;;;;;;5052736;28;20214;-80
2022/08/22 02:23:33;;;;;;;3.72;2.28;;;16.70;99.90;;;;;;5054396;28;20200;-80
2022/08/22 02:26:06;;;;;;;3.03;2.20;;;16.70;99.90;;;;;;5053884;28;20209;-78
2022/08/22 02:28:52;;;;;;;7.32;3.33;;;16.70;99.90;;;;;;5053764;28;20194;-80
2022/08/22 02:31:25;;;;;;;7.43;3.00;;;16.70;99.90;;;;;;5044232;28;20225;-80
2022/08/22 02:33:57;;;;;;;7.32;3.03;;;16.70;99.90;;;;;;5033484;28;20219;-81
2022/08/22 02:36:30;;;;;;;4.32;3.00;;;16.70;99.90;;;;;;5034239;28;20195;-80
2022/08/22 02:39:04;;;;;;;3.17;2.38;;;16.70;99.90;;;;;;5033006;28;20311;-81
2022/08/22 02:41:44;;;;;;;4.53;2.63;;;16.60;99.90;;;;;;5033761;28;20237;-80
2022/08/22 02:44:20;;;;;;;6.15;2.88;;;16.60;99.90;;;;;;5033793;28;20202;-81
2022/08/22 02:46:51;;;;;;;5.57;3.08;;;16.60;99.90;;;;;;5033071;28;20197;-81
2022/08/22 02:49:24;;;;;;;7.22;3.15;;;16.60;99.90;;;;;;5033847;28;20198;-81
2022/08/22 02:51:57;;;;;;;4.82;2.63;;;16.60;99.90;;;;;;5033059;28;20198;-81
2022/08/22 02:54:33;;;;;;;7.10;3.38;;;16.60;99.90;;;;;;5032912;28;20538;-77
2022/08/22 02:57:05;;;;;;;8.60;3.30;;;16.50;99.90;;;;;;5033477;28;20210;-80
2022/08/22 02:59:35;;;;;;;6.68;3.28;;;16.50;99.90;;;;;;5033000;28;20233;-80
2022/08/22 03:02:29;;;;;;;6.30;3.08;;;16.50;99.90;;;;;;5032387;28;20252;-81
2022/08/22 03:05:00;;;;;;;6.03;3.05;;;16.50;99.90;;;;;;5032914;28;20209;-81
2022/08/22 03:07:36;;;;;;;8.57;3.53;;;16.50;99.90;;;;;;5032510;28;20206;-80
2022/08/22 03:10:16;;;;;;;8.13;2.97;;;16.50;99.90;;;;;;5032926;28;20297;-80
2022/08/22 03:12:52;;;;;;;6.22;3.28;;;16.50;99.90;;;;;;5033160;28;20277;-81
2022/08/22 03:15:26;;;;;;;6.10;2.95;;;16.50;99.90;;;;;;5033944;28;20285;-81
2022/08/22 03:17:58;;;;;;;6.00;2.83;;;16.40;99.90;;;;;;5052590;28;20732;-80
2022/08/22 03:20:41;;;;;;;8.70;3.58;;;16.40;99.90;;;;;;5051134;28;20721;-80
2022/08/22 03:23:15;;;;;;;4.97;2.83;;;16.40;99.90;;;;;;5032432;28;20226;-81
2022/08/22 03:25:50;;;;;;;5.57;2.83;;;16.40;99.90;;;;;;5032589;28;20650;-81
2022/08/22 03:28:23;;;;;;;5.03;2.78;;;16.40;99.90;;;;;;5031936;28;20610;-80
2022/08/22 03:30:59;;;;;;;6.15;3.05;;;16.40;99.90;;;;;;5032975;28;20195;-80
2022/08/22 03:33:27;;;;;;;5.57;2.83;;;16.40;99.90;;;;;;5032872;28;20217;-80
2022/08/22 03:36:03;;;;;;;8.18;3.20;;;16.40;99.90;;;;;;5031877;28;20209;-80
2022/08/22 03:38:47;;;;;;;5.18;3.00;;;16.40;99.90;;;;;;5042410;23;20187;-80
2022/08/22 03:41:31;;;;;;;7.53;2.88;;;16.40;99.90;;;;;;5045397;28;20226;-80
2022/08/22 03:44:27;;;;;;;4.00;2.90;;;16.40;99.90;;;;;;5031868;28;20253;-80
2022/08/22 03:47:12;;;;;;;6.65;2.90;;;16.40;99.90;;;;;;5032124;28;20207;-80
2022/08/22 03:50:24;;;;;;;4.32;2.45;;;16.40;99.90;;;;;;5031871;28;20196;-80
2022/08/22 03:53:32;;;;;;;4.53;2.80;;;16.30;99.90;;;;;;4971373;28;20219;-81
2022/08/22 03:56:57;;;;;;;3.92;2.67;;;16.30;99.90;;;;;;4971080;28;20228;-79
2022/08/22 03:59:56;;;;;;;5.53;2.78;;;16.20;99.90;;;;;;5032748;28;20221;-80
2022/08/22 04:02:48;;;;;;;4.57;3.10;;;16.20;99.90;;;;;;5031753;28;20615;-80
2022/08/22 04:05:34;;;;;;;4.72;2.80;;;16.20;99.90;;;;;;5031917;28;20209;-80
2022/08/22 04:08:29;;;;;;;3.15;2.30;;;16.20;99.90;;;;;;5032088;28;20610;-79
2022/08/22 04:11:20;;;;;;;5.55;2.65;;;16.10;99.90;;;;;;5031373;28;20222;-80
2022/08/22 04:14:23;;;;;;;4.00;2.60;;;16.10;99.90;;;;;;5032096;28;20187;-81
2022/08/22 04:17:08;;;;;;;4.88;2.95;;;16.10;99.90;;;;;;5031844;28;20594;-80
2022/08/22 04:19:54;;;;;;;3.10;2.65;;;16.00;99.90;;;;;;5032122;28;20190;-80
2022/08/22 04:22:54;;;;;;;4.70;3.15;;;16.00;99.90;;;;;;5032039;28;20506;-79
2022/08/22 04:25:24;;;;;;;4.45;3.20;;;16.00;99.90;;;;;;5010881;28;20206;-79
2022/08/22 04:27:57;;;;;;;6.28;3.15;;;16.00;99.90;;;;;;5032147;28;20273;-80
2022/08/22 04:30:30;;;;;;;6.13;3.83;;;16.00;99.90;;;;;;5031733;28;20190;-80
2022/08/22 04:33:05;;;;;;;6.55;4.00;;;16.00;99.90;;;;;;5031530;28;20257;-80
2022/08/22 04:35:35;;;;;;;5.10;3.65;;;16.00;99.90;;;;;;5012138;28;20764;-79
2022/08/22 04:38:10;;;;;;;5.75;3.60;;;16.00;99.90;;;;;;5028087;28;20241;-80
2022/08/22 04:40:43;;;;;;;3.33;2.75;;;16.00;99.90;;;;;;5031143;28;20333;-80
2022/08/22 04:43:15;;;;;;;4.40;2.92;;;15.90;99.90;;;;;;5032234;28;20763;-80
2022/08/22 04:45:48;;;;;;;4.80;3.22;;;15.90;99.90;;;;;;5025937;28;20199;-79
2022/08/22 04:48:22;;;;;;;4.30;3.10;;;15.90;99.90;;;;;;5012248;28;20221;-79
2022/08/22 04:50:54;;;;;;;4.85;3.13;;;15.90;99.90;;;;;;5012189;28;20187;-79
2022/08/22 04:53:45;;;;;;;4.90;3.20;;;15.90;99.90;;;;;;5011740;28;20191;-77
2022/08/22 04:56:22;;;;;;;4.70;3.38;;;15.90;99.90;;;;;;5012205;28;20202;-79
2022/08/22 04:58:57;;;;;;;4.43;3.05;;;15.90;99.90;;;;;;5012992;28;20195;-77
2022/08/22 05:01:37;;;;;;;4.55;3.45;;;15.90;99.90;;;;;;5031904;28;20213;-78
2022/08/22 05:04:08;;;;;;;4.93;2.90;;;15.80;99.90;;;;;;5032353;28;20199;-78
2022/08/22 05:06:40;;;;;;;6.05;3.55;;;15.80;99.90;;;;;;5031496;28;20199;-79
2022/08/22 05:09:11;;;;;;;4.03;2.95;;;15.80;99.90;;;;;;5023997;28;20207;-78
2022/08/22 05:11:41;;;;;;;3.72;3.03;;;15.80;99.90;;;;;;5015497;28;20594;-77
2022/08/22 05:14:15;;;;;;;3.95;2.92;;;15.80;99.90;;;;;;5030431;28;20298;-80
2022/08/22 05:16:50;;;;;;;4.03;3.20;;;15.80;99.90;;;;;;5035262;28;20186;-78
2022/08/22 05:19:21;;;;;;;4.93;3.50;;;15.80;99.90;;;;;;5035064;28;20589;-78
2022/08/22 05:21:49;;;;;;;3.88;3.42;;;15.90;99.90;;;;;;5017485;28;20218;-76
2022/08/22 05:24:22;;;;;;;5.72;3.38;;;15.90;99.90;;;;;;5015215;28;20207;-76
2022/08/22 05:26:54;;;;;;;4.40;3.10;;;15.90;99.90;;;;;;5020276;28;20396;-78
2022/08/22 05:29:26;;;;;;;4.32;3.08;;;15.90;99.90;;;;;;5014606;28;20299;-77
2022/08/22 05:32:00;;;;;;;5.18;3.75;;;16.00;99.90;;;;;;5014899;28;20194;-77
2022/08/22 05:34:32;;;;;;;4.35;3.53;;;16.00;99.90;;;;;;5015536;28;20235;-78
2022/08/22 05:37:04;;;;;;;7.63;3.60;;;16.00;99.90;;;;;;5014086;28;20194;-77
2022/08/22 05:39:33;;;;;;;5.50;3.53;;;16.10;99.90;;;;;;5034252;28;20222;-76
2022/08/22 05:42:02;;;;;;;5.05;3.67;;;16.10;99.90;;;;;;5022511;28;20651;-77
2022/08/22 05:44:32;;;;;;;5.40;2.95;;;16.20;99.90;;;;;;5014424;28;20207;-79
2022/08/22 05:47:04;;;;;;;6.72;3.47;;;16.20;99.90;;;;;;5014320;28;20195;-78
2022/08/22 05:49:37;;;;;;;5.35;3.72;;;16.20;99.90;;;;;;5014043;28;20207;-78
2022/08/22 05:52:14;;;;;;;5.25;3.15;;;16.20;99.90;;;;;;5014688;28;20286;-79
2022/08/22 05:54:52;;;;;;;5.30;3.80;;;16.20;99.90;;;;;;5014442;28;20202;-79
2022/08/22 05:57:27;;;;;;;4.95;3.42;;;16.30;99.90;;;;;;5014068;28;20209;-79
2022/08/22 06:00:01;;;;;;;4.78;3.55;;;16.30;99.90;;;;;;5014709;28;20305;-79
2022/08/22 06:02:47;;;;;;;3.33;3.03;;;16.30;99.90;;;;;;5014386;28;20634;-79
2022/08/22 06:05:20;;;;;;;6.80;3.75;;;16.40;99.90;;;;;;5013932;28;20609;-76
2022/08/22 06:07:50;;;;;;;4.72;3.50;;;16.40;99.90;;;;;;5013987;28;20605;-77
2022/08/22 06:10:22;;;;;;;4.47;2.95;;;16.40;99.90;;;;;;5013575;28;20225;-78
2022/08/22 06:12:55;;;;;;;5.20;3.33;;;16.50;99.90;;;;;;5013983;28;20584;-77
2022/08/22 06:15:29;;;;;;;6.82;4.10;;;16.50;99.90;;;;;;5014289;28;20199;-78
2022/08/22 06:18:02;;;;;;;8.10;3.92;;;16.50;99.90;;;;;;5013682;28;20194;-78
2022/08/22 06:20:34;;;;;;;6.35;3.65;;;16.50;99.90;;;;;;5013690;28;20436;-80
2022/08/22 06:23:02;;;;;;;5.40;3.63;;;16.50;99.90;;;;;;5014239;28;20212;-78
2022/08/22 06:25:32;;;;;;;6.75;3.97;;;16.60;99.90;;;;;;5013712;28;20203;-77
2022/08/22 06:28:02;;;;;;;8.50;4.47;;;16.60;99.90;;;;;;5014281;28;20566;-78
2022/08/22 06:30:30;;;;;;;4.72;3.60;;;16.60;99.90;;;;;;5021697;28;20206;-78
2022/08/22 06:33:05;;;;;;;5.38;4.00;;;16.60;99.90;;;;;;5032888;28;20198;-77
2022/08/22 06:38:18;;;;;;;5.47;3.50;;;16.70;99.90;;;;;;5018862;28;20213;-81
2022/08/22 06:40:45;;;;;;;7.70;3.60;;;16.80;99.90;;;;;;5027985;28;20198;-81
2022/08/22 06:43:14;;;;;;;7.18;4.15;;;16.80;99.90;;;;;;5030943;28;20234;-78
2022/08/22 06:45:41;;;;;;;11.20;4.32;;;16.90;99.90;;;;;;5030014;28;20405;-79
2022/08/22 06:48:18;;;;;;;9.43;4.57;;;16.90;99.90;;;;;;5030283;28;20209;-81
2022/08/22 06:50:51;;;;;;;8.32;3.78;;;17.10;99.90;;;;;;5031160;28;20289;-82
2022/08/22 06:53:21;;;;;;;10.70;5.28;;;17.20;99.90;;;;;;5031274;28;20207;-81
2022/08/22 06:55:53;;;;;;;11.63;4.55;;;17.30;99.90;;;;;;5024673;28;20599;-76
2022/08/22 06:58:23;;;;;;;10.60;4.38;;;17.40;99.90;;;;;;5013419;28;20196;-79
2022/08/22 07:00:54;;;;;;;8.05;3.88;;;17.60;99.90;;;;;;5012256;28;20625;-78
2022/08/22 07:03:26;;;;;;;9.38;4.50;;;17.80;99.90;;;;;;5013134;28;20452;-79
2022/08/22 07:05:55;;;;;;;10.55;4.80;;;18.00;99.90;;;;;;5013135;28;20191;-78
2022/08/22 07:08:24;;;;;;;14.25;5.07;;;18.30;99.90;;;;;;5013026;28;20287;-77
2022/08/22 07:10:58;;;;;;;12.30;4.97;;;18.50;99.90;;;;;;5012866;28;20207;-77
2022/08/22 07:13:27;;;;;;;8.10;4.10;;;18.70;99.90;;;;;;5012750;28;20199;-79
2022/08/22 07:15:58;;;;;;;11.75;3.95;;;19.00;99.90;;;;;;5013473;28;20199;-80
2022/08/22 07:18:30;;;;;;;10.45;4.85;;;19.30;99.90;;;;;;5012228;28;20210;-77
2022/08/22 07:21:01;;;;;;;8.63;3.72;;;19.60;99.90;;;;;;5011837;28;20203;-79
2022/08/22 07:23:34;;;;;;;8.93;3.78;;;19.90;99.90;;;;;;5012529;28;20306;-78
2022/08/22 07:26:14;;;;;;;9.43;3.60;;;20.30;99.90;;;;;;5013169;28;20293;-83
2022/08/22 07:28:47;;;;;;;8.52;3.30;;;20.60;99.90;;;;;;5012198;28;20199;-77
2022/08/22 07:31:21;;;;;;;7.53;3.13;;;20.90;99.90;;;;;;5012937;28;20206;-80
2022/08/22 07:33:53;;;;;;;10.77;3.58;;;21.20;99.90;;;;;;5012305;28;20237;-80
2022/08/22 07:36:28;;;;;;;7.18;2.85;;;21.50;99.90;;;;;;5012274;28;20199;-80
2022/08/22 07:39:17;;;;;;;7.90;3.28;;;21.70;99.90;;;;;;5012851;28;20245;-81
2022/08/22 07:41:56;;;;;;;10.23;3.20;;;22.00;99.90;;;;;;5011707;28;20219;-81
2022/08/22 07:44:30;;;;;;;7.72;2.75;;;22.40;99.90;;;;;;5012670;28;20219;-79
2022/08/22 07:47:00;;;;;;;9.57;3.70;;;22.60;45.00;;;;;;5012260;28;20842;-79
2022/08/22 07:49:31;;;;;;;6.75;2.90;;;22.90;30.90;;;;;;5012331;28;20281;-80
2022/08/22 07:52:01;;;;;;;7.70;3.13;;;23.10;23.80;;;;;;5012517;28;20195;-81
2022/08/22 07:54:36;;;;;;;9.85;2.80;;;23.30;1.00;;;;;;5012665;28;20270;-81
2022/08/22 07:57:06;;;;;;;8.13;3.53;;;23.40;1.00;;;;;;5011278;28;20191;-81
2022/08/22 07:59:35;;;;;;;7.63;2.97;;;23.50;1.00;;;;;;5012481;28;20533;-79
2022/08/22 08:02:07;;;;;;;5.70;2.92;;;23.70;1.00;;;;;;5012272;28;20224;-80
2022/08/22 08:04:37;;;;;;;7.03;3.03;;;23.80;1.00;;;;;;5012005;28;20196;-80
2022/08/22 08:07:07;;;;;;;11.20;3.75;;;24.00;1.00;;;;;;5012457;28;20555;-81
2022/08/22 08:09:39;;;;;;;8.63;3.10;;;24.10;1.00;;;;;;5011951;28;20180;-81
2022/08/22 08:12:10;;;;;;;5.72;2.65;;;24.30;1.00;;;;;;5012118;28;20226;-82
2022/08/22 08:14:39;;;;;;;8.77;2.53;;;24.40;1.00;;;;;;5011915;28;20180;-81
2022/08/22 08:17:13;;;;;;;6.00;2.58;;;24.60;1.00;;;;;;5011153;28;20231;-77
2022/08/22 08:19:42;;;;;;;9.13;2.47;;;24.80;1.00;;;;;;5011993;28;20187;-79
2022/08/22 08:22:15;;;;;;;6.88;2.85;;;25.10;1.00;;;;;;5011737;28;20310;-77
2022/08/22 08:24:43;;;;;;;5.75;2.97;;;25.20;1.00;;;;;;5011059;28;20512;-79
2022/08/22 08:30:02;;;;;;;5.80;2.38;;;25.60;99.90;;;;;;5012065;28;20515;-78
2022/08/22 08:32:33;;;;;;;5.22;2.60;;;25.70;1.00;;;;;;5011055;28;20634;-80
2022/08/22 08:35:04;;;;;;;7.30;2.85;;;25.80;1.00;;;;;;5011838;28;20230;-80
2022/08/22 08:37:40;;;;;;;5.47;2.30;;;25.80;17.80;;;;;;5011131;28;20208;-80
2022/08/22 08:40:20;;;;;;;7.45;2.30;;;26.10;1.00;;;;;;5011457;28;20239;-80
2022/08/22 08:46:17;;;;;;;5.00;2.53;;;26.30;1.00;;;;;;5015756;28;20186;-79
2022/08/22 08:49:09;;;;;;;8.45;2.55;;;26.50;71.30;;;;;;4982276;28;20206;-80
2022/08/22 08:52:08;;;;;;;7.28;2.78;;;26.70;1.00;;;;;;5015507;28;20192;-80
2022/08/22 08:54:50;;;;;;;8.15;2.65;;;26.80;1.00;;;;;;5016234;28;20294;-81
2022/08/22 08:57:33;;;;;;;8.15;2.88;;;27.10;99.90;;;;;;5015650;28;20210;-80
2022/08/22 09:00:06;;;;;;;7.18;2.50;;;26.90;1.00;;;;;;5014812;28;20546;-81
2022/08/22 09:02:51;;;;;;;6.78;2.85;;;26.90;99.90;;;;;;5015748;28;20277;-80
2022/08/22 09:05:57;;;;;;;8.00;3.15;;;26.90;99.90;;;;;;5015878;28;20199;-79
2022/08/22 09:08:48;;;;;;;10.02;2.97;;;27.00;1.00;;;;;;4916765;29;20213;-81
2022/08/22 09:12:03;;;;;;;7.95;2.78;;;26.90;1.00;;;;;;4991286;28;20229;-82
2022/08/22 09:14:47;;;;;;;6.80;2.33;;;27.00;99.90;;;;;;5005364;28;20215;-81
2022/08/22 09:17:42;;;;;;;7.88;2.90;;;27.00;1.00;;;;;;5015432;28;20253;-80
2022/08/22 09:20:49;;;;;;;6.30;2.75;;;27.30;99.90;;;;;;5015323;28;20229;-81
2022/08/22 09:23:38;;;;;;;6.30;3.00;;;27.40;99.90;;;;;;5015476;28;20229;-81
2022/08/22 09:26:14;;;;;;;10.63;2.90;;;27.30;1.00;;;;;;5015086;28;20212;-81
2022/08/22 09:28:52;;;;;;;7.28;2.85;;;27.30;99.90;;;;;;5015338;28;20192;-84
2022/08/22 09:31:36;;;;;;;8.73;3.35;;;27.10;1.00;;;;;;5015739;28;20507;-81
2022/08/22 09:34:11;;;;;;;6.43;2.70;;;27.20;1.00;;;;;;5034275;28;20218;-82
2022/08/22 09:36:54;;;;;;;7.53;2.63;;;27.30;1.00;;;;;;5035046;28;20198;-86
2022/08/22 09:39:31;;;;;;;7.03;2.45;;;27.10;1.00;;;;;;5020911;28;20241;-81
2022/08/22 09:42:03;;;;;;;5.50;2.15;;;27.20;1.00;;;;;;5014174;28;20248;-81
2022/08/22 09:44:40;;;;;;;9.80;2.85;;;27.30;1.00;;;;;;5015230;28;20275;-80
2022/08/22 09:47:15;;;;;;;6.75;2.67;;;27.20;99.90;;;;;;5014686;28;20555;-81
2022/08/22 09:49:51;;;;;;;9.68;2.33;;;27.20;99.90;;;;;;5014451;28;20188;-81
2022/08/22 09:52:27;;;;;;;9.18;2.53;;;27.30;99.90;;;;;;5014655;28;20203;-82
2022/08/22 09:55:02;;;;;;;5.38;2.50;;;27.50;1.00;;;;;;5030010;28;20194;-79
2022/08/22 09:57:34;;;;;;;7.20;2.63;;;27.60;1.00;;;;;;5022079;28;20301;-82
2022/08/22 10:00:20;;;;;;;8.40;2.95;;;27.50;1.00;;;;;;5015113;28;20192;-80
2022/08/22 10:03:10;;;;;;;9.20;2.90;;;27.40;1.00;;;;;;5013832;28;20211;-79
2022/08/22 10:05:45;;;;;;;5.53;2.35;;;27.30;1.00;;;;;;5015161;28;20203;-80
2022/08/22 10:08:29;;;;;;;8.10;2.47;;;27.40;1.00;;;;;;5014910;28;20495;-81
2022/08/22 10:11:30;;;;;;;6.45;2.53;;;27.50;1.00;;;;;;5014521;28;20194;-82
2022/08/22 10:14:02;;;;;;;6.43;2.35;;;27.60;1.00;;;;;;4974211;28;20195;-80
2022/08/22 10:16:43;;;;;;;5.60;2.10;;;27.40;1.00;;;;;;5014040;28;20207;-80
2022/08/22 10:19:17;;;;;;;6.95;2.08;;;27.20;1.00;;;;;;5014441;28;20196;-80
2022/08/22 10:22:07;;;;;;;4.63;2.35;;;27.40;1.00;;;;;;5014304;28;20199;-81
2022/08/22 10:24:43;;;;;;;5.43;2.20;;;27.30;1.00;;;;;;5011967;28;20211;-80
2022/08/22 10:27:16;;;;;;;7.72;2.45;;;27.00;1.00;;;;;;5032440;28;20218;-81
2022/08/22 10:30:05;;;;;;;8.90;2.72;;;26.90;1.00;;;;;;5013357;28;20275;-79
2022/08/22 10:32:38;;;;;;;4.80;2.42;;;26.80;1.00;;;;;;5013811;28;20315;-80
2022/08/22 10:35:16;;;;;;;6.70;2.70;;;26.70;1.00;;;;;;5033394;28;20229;-81
2022/08/22 10:37:53;;;;;;;7.75;2.40;;;26.50;1.00;;;;;;5021552;28;20199;-81
2022/08/22 10:40:26;;;;;;;6.18;2.28;;;26.40;1.00;;;;;;5013282;28;20322;-79
2022/08/22 10:43:00;;;;;;;7.40;3.10;;;26.30;1.00;;;;;;5031312;28;20233;-78
2022/08/22 10:45:32;;;;;;;6.75;2.25;;;26.20;1.00;;;;;;5033181;28;20182;-80
2022/08/22 10:48:27;;;;;;;7.35;2.45;;;26.00;1.00;;;;;;5022632;28;20211;-79
2022/08/22 10:51:03;;;;;;;6.25;2.80;;;25.80;1.00;;;;;;5013861;28;20283;-80
2022/08/22 10:53:41;;;;;;;4.97;2.45;;;25.70;1.00;;;;;;5013738;28;20207;-80
2022/08/22 10:56:15;;;;;;;7.78;2.72;;;25.90;1.00;;;;;;5013695;28;20203;-78
2022/08/22 10:58:51;;;;;;;8.52;2.78;;;26.20;1.00;;;;;;5012749;28;20217;-80
2022/08/22 11:01:19;;;;;;;6.25;2.38;;;26.60;1.00;;;;;;5033112;28;20241;-80
2022/08/22 11:03:56;;;;;;;10.65;2.50;;;26.90;1.00;;;;;;5032966;28;20218;-80
2022/08/22 11:06:29;;;;;;;7.55;2.58;;;27.30;1.00;;;;;;5032623;28;20191;-79
2022/08/22 11:09:13;;;;;;;6.25;2.25;;;27.50;1.00;;;;;;5030860;28;20238;-80
2022/08/22 11:11:45;;;;;;;6.15;2.70;;;27.70;1.00;;;;;;5013944;28;20207;-82
2022/08/22 11:14:30;;;;;;;5.35;2.50;;;27.50;1.00;;;;;;5032368;22;20238;-83
2022/08/22 11:17:06;;;;;;;6.13;2.60;;;27.30;1.00;;;;;;5053378;28;20590;-83
2022/08/22 11:20:01;;;;;;;6.85;2.70;;;27.20;1.00;;;;;;5053808;28;20300;-83
2022/08/22 11:22:32;;;;;;;5.47;2.20;;;27.40;1.00;;;;;;5055201;28;20300;-85
2022/08/22 11:25:20;;;;;;;5.88;2.50;;;27.30;1.00;;;;;;5049639;28;20203;-83
2022/08/22 11:27:59;;;;;;;6.47;2.30;;;27.30;1.00;;;;;;5032879;28;20194;-83
2022/08/22 11:30:34;;;;;;;6.57;2.47;;;27.40;1.00;;;;;;5033260;28;20210;-78
2022/08/22 11:33:20;;;;;;;7.57;2.75;;;27.40;1.00;;;;;;5032525;28;20209;-80
2022/08/22 11:35:54;;;;;;;6.85;2.85;;;27.30;1.00;;;;;;5032777;28;20193;-78
2022/08/22 11:38:29;;;;;;;5.30;2.47;;;27.00;1.00;;;;;;5032736;28;20190;-80
2022/08/22 11:41:00;;;;;;;5.55;2.50;;;26.90;1.00;;;;;;5032009;28;20189;-79
2022/08/22 11:43:38;;;;;;;5.22;2.53;;;27.20;1.00;;;;;;5032652;28;20246;-80
2022/08/22 11:46:22;;;;;;;5.97;2.78;;;27.60;1.00;;;;;;5032915;28;20812;-78
2022/08/22 11:49:13;;;;;;;8.85;2.45;;;27.60;99.90;;;;;;5031999;28;20601;-79
2022/08/22 11:52:02;;;;;;;5.18;2.50;;;27.90;99.90;;;;;;5033164;28;20214;-81
2022/08/22 11:54:40;;;;;;;5.93;2.65;;;27.40;99.90;;;;;;5037647;28;20221;-79
2022/08/22 11:57:09;;;;;;;8.45;2.90;;;27.70;1.00;;;;;;5052741;28;20201;-80
2022/08/22 12:00:00;;;;;;;5.15;2.38;;;27.70;99.90;;;;;;5053053;28;20194;-77
2022/08/22 12:02:35;;;;;;;6.18;2.15;;;27.90;99.90;;;;;;5051368;28;20193;-79
2022/08/22 12:05:10;;;;;;;6.85;2.50;;;27.70;99.90;;;;;;5050212;28;20284;-77
2022/08/22 12:07:40;;;;;;;5.68;2.47;;;27.60;99.90;;;;;;5052242;28;20207;-79
2022/08/22 12:10:15;;;;;;;5.43;2.17;;;27.60;99.90;;;;;;5051425;28;20197;-78
2022/08/22 12:12:56;;;;;;;5.85;2.40;;;27.60;99.90;;;;;;5031030;28;20206;-79
2022/08/22 12:15:27;;;;;;;6.13;2.88;;;27.60;99.90;;;;;;5030320;28;20241;-77
2022/08/22 12:18:30;;;;;;;5.07;2.35;;;27.70;99.90;;;;;;5031015;28;20281;-78
2022/08/22 12:21:37;;;;;;;5.43;2.67;;;27.70;99.90;;;;;;5030764;28;20191;-80
2022/08/22 12:24:22;;;;;;;6.00;2.80;;;27.60;99.90;;;;;;5030911;28;20203;-79
2022/08/22 12:26:58;;;;;;;5.90;2.60;;;27.50;99.90;;;;;;5031321;28;20195;-80
2022/08/22 12:29:33;;;;;;;7.20;2.60;;;27.70;99.90;;;;;;5031985;28;20236;-79
2022/08/22 12:32:52;;;;;;;5.50;2.17;;;28.00;99.90;;;;;;5032541;28;20284;-83
2022/08/22 12:35:34;;;;;;;7.75;2.70;;;28.20;99.90;;;;;;5051534;28;20572;-81
2022/08/22 12:38:16;;;;;;;5.60;2.55;;;28.20;99.90;;;;;;5039021;28;20202;-82
2022/08/22 12:40:55;;;;;;;2.70;1.75;;;27.90;99.90;;;;;;5032856;28;20187;-83
2022/08/22 12:43:40;;;;;;;4.45;2.05;;;28.00;99.90;;;;;;5032838;28;20206;-82
2022/08/22 12:46:17;;;;;;;5.20;2.50;;;28.20;99.90;;;;;;5032228;28;20194;-82
2022/08/22 12:49:05;;;;;;;7.53;2.80;;;28.00;99.90;;;;;;5032624;28;20299;-83
2022/08/22 12:51:43;;;;;;;9.35;2.88;;;27.90;99.90;;;;;;5044779;28;20244;-79
2022/08/22 12:54:55;;;;;;;6.60;2.72;;;28.00;99.90;;;;;;5051439;28;20544;-79
2022/08/22 12:57:32;;;;;;;7.80;2.28;;;27.90;99.90;;;;;;5051613;28;20527;-80
2022/08/22 13:00:07;;;;;;;6.78;3.20;;;27.90;99.90;;;;;;5046297;28;20290;-81
2022/08/22 13:02:38;;;;;;;6.22;2.40;;;27.50;99.90;;;;;;5031585;28;20285;-80
2022/08/22 13:05:12;;;;;;;7.35;2.90;;;27.60;99.90;;;;;;5031394;28;20191;-81
2022/08/22 13:07:43;;;;;;;9.85;2.65;;;27.80;99.90;;;;;;5031746;28;20201;-81
2022/08/22 13:10:41;;;;;;;9.35;2.83;;;27.90;99.90;;;;;;5031717;28;20195;-80
2022/08/22 13:13:11;;;;;;;6.60;2.80;;;28.00;99.90;;;;;;5031247;28;20572;-78
2022/08/22 13:15:44;;;;;;;5.35;2.40;;;27.80;99.90;;;;;;5031277;28;20594;-80
2022/08/22 13:18:17;;;;;;;8.15;2.72;;;27.90;99.90;;;;;;5031578;28;20588;-79
2022/08/22 13:20:47;;;;;;;9.93;3.03;;;28.10;99.90;;;;;;5030621;28;20269;-80
2022/08/22 13:23:19;;;;;;;6.35;2.40;;;28.20;99.90;;;;;;5032116;28;20230;-82
2022/08/22 13:26:05;;;;;;;8.50;3.03;;;28.10;99.90;;;;;;5031803;28;20194;-79
2022/08/22 13:28:36;;;;;;;8.23;3.33;;;28.20;99.90;;;;;;5032757;28;20186;-83
2022/08/22 13:31:04;;;;;;;6.57;2.83;;;27.90;99.90;;;;;;5033570;28;20195;-81
2022/08/22 13:33:34;;;;;;;7.15;2.72;;;27.70;99.90;;;;;;5034730;28;20309;-79
2022/08/22 13:36:04;;;;;;;5.03;2.38;;;27.70;99.90;;;;;;5034778;28;20260;-83
2022/08/22 13:38:40;;;;;;;6.25;2.33;;;27.70;99.90;;;;;;5034918;28;20206;-79
2022/08/22 13:41:08;;;;;;;6.80;2.50;;;27.80;99.90;;;;;;5033566;28;20199;-84
2022/08/22 13:43:52;;;;;;;5.72;2.58;;;28.00;99.90;;;;;;5034771;28;20812;-82
2022/08/22 13:46:22;;;;;;;6.65;2.65;;;28.10;99.90;;;;;;5034998;28;20189;-84
2022/08/22 13:48:52;;;;;;;4.93;2.20;;;28.10;99.90;;;;;;5034332;28;20206;-82
2022/08/22 13:51:26;;;;;;;4.28;2.13;;;28.10;99.90;;;;;;5034676;28;20199;-82
2022/08/22 13:54:02;;;;;;;8.27;2.70;;;28.20;99.90;;;;;;5034633;28;20198;-79
2022/08/22 13:56:37;;;;;;;7.57;3.10;;;28.40;99.90;;;;;;5034771;28;20194;-79